Time;durP1;ratioP1;P1;durP2;ratioP2;P2;SDS_P1;SDS_P2;PMS_P1;PMS_P2;Temp;Humidity;BMP_temperature;BMP_pressure;BME280_temperature;BME280_humidity;BME280_pressure;Samples;Min_cycle;Max_cycle;Signal;HPM_P1;HPM_P2
2021/09/29 00:03:29;;;;;;;4.10;2.70;;;13.90;97.30;;;;;;8353686;28;20168;-80
2021/09/29 00:07:29;;;;;;;5.20;1.80;;;13.70;97.30;;;;;;8352747;28;20468;-80
2021/09/29 00:11:30;;;;;;;2.43;2.20;;;13.60;97.40;;;;;;8354284;28;20361;-80
2021/09/29 00:15:31;;;;;;;4.33;2.77;;;13.50;97.50;;;;;;8356804;28;20524;-80
2021/09/29 00:19:32;;;;;;;9.50;2.50;;;13.50;97.50;;;;;;8354131;28;20194;-78
2021/09/29 00:23:33;;;;;;;6.60;2.33;;;13.50;97.40;;;;;;8353947;28;20172;-79
2021/09/29 00:27:35;;;;;;;11.70;2.27;;;13.50;97.50;;;;;;8354715;28;20475;-80
2021/09/29 00:31:38;;;;;;;4.23;2.43;;;13.40;97.90;;;;;;8357611;28;20231;-80
2021/09/29 00:35:38;;;;;;;11.20;2.90;;;13.30;97.70;;;;;;8349900;28;20427;-79
2021/09/29 00:39:39;;;;;;;6.20;3.50;;;13.20;97.70;;;;;;8350480;28;20571;-79
2021/09/29 00:43:39;;;;;;;4.63;2.23;;;13.20;97.80;;;;;;8350918;28;20278;-80
2021/09/29 00:47:40;;;;;;;4.07;2.30;;;13.20;97.80;;;;;;8352778;28;20240;-79
2021/09/29 00:51:41;;;;;;;3.13;2.13;;;13.20;97.70;;;;;;8350342;28;20190;-79
2021/09/29 00:55:43;;;;;;;2.90;2.10;;;13.20;97.70;;;;;;8352231;28;20246;-79
2021/09/29 00:59:43;;;;;;;7.70;2.37;;;13.20;97.60;;;;;;8351166;28;20425;-79
2021/09/29 01:03:46;;;;;;;6.30;3.10;;;13.20;97.70;;;;;;8353092;28;20441;-79
2021/09/29 01:08:13;;;;;;;6.40;2.57;;;13.10;97.70;;;;;;8353813;28;20211;-79
2021/09/29 01:12:46;;;;;;;13.13;3.20;;;13.00;97.80;;;;;;8355722;28;20405;-78
2021/09/29 01:16:48;;;;;;;13.57;3.53;;;13.00;97.90;;;;;;8349740;28;20437;-79
2021/09/29 01:21:13;;;;;;;4.67;3.00;;;12.90;98.00;;;;;;8347450;28;20429;-79
2021/09/29 01:25:26;;;;;;;10.10;3.60;;;12.90;98.10;;;;;;8350258;28;20530;-80
2021/09/29 01:29:27;;;;;;;7.90;2.67;;;13.00;98.10;;;;;;8348874;28;20485;-80
2021/09/29 01:33:30;;;;;;;10.80;3.77;;;13.10;98.00;;;;;;8344587;28;20434;-79
2021/09/29 01:37:31;;;;;;;6.83;3.23;;;13.20;97.80;;;;;;8344533;28;20203;-80
2021/09/29 01:41:32;;;;;;;10.17;3.17;;;13.40;97.80;;;;;;8351818;28;20454;-80
2021/09/29 01:45:35;;;;;;;4.00;3.50;;;13.50;97.60;;;;;;8353221;28;20265;-80
2021/09/29 01:49:45;;;;;;;4.30;2.77;;;13.70;97.30;;;;;;8352503;28;20600;-80
2021/09/29 01:53:49;;;;;;;6.43;3.90;;;13.80;97.00;;;;;;8354557;28;20405;-80
2021/09/29 01:57:52;;;;;;;9.90;3.80;;;13.90;96.80;;;;;;8354248;28;20434;-79
2021/09/29 02:01:53;;;;;;;5.77;4.07;;;13.90;96.90;;;;;;8353233;28;20426;-79
2021/09/29 02:05:54;;;;;;;7.70;4.27;;;14.00;96.60;;;;;;8353028;28;20956;-80
2021/09/29 02:09:55;;;;;;;9.40;4.40;;;14.00;96.40;;;;;;8350037;28;20465;-80
2021/09/29 02:13:55;;;;;;;9.07;5.60;;;14.10;96.30;;;;;;8349504;28;20179;-80
2021/09/29 02:17:56;;;;;;;7.53;5.20;;;14.20;96.20;;;;;;8352428;28;20253;-80
2021/09/29 02:21:57;;;;;;;8.10;4.70;;;14.20;96.10;;;;;;8350922;28;20179;-80
2021/09/29 02:25:57;;;;;;;7.87;4.50;;;14.20;96.10;;;;;;8352796;28;20172;-79
2021/09/29 02:29:58;;;;;;;16.13;7.30;;;14.30;96.10;;;;;;8354442;28;20289;-81
2021/09/29 02:33:59;;;;;;;8.37;5.27;;;14.20;96.10;;;;;;8356553;28;20176;-82
2021/09/29 02:37:59;;;;;;;13.30;6.40;;;14.20;96.10;;;;;;8354793;28;20213;-79
2021/09/29 02:42:00;;;;;;;10.40;5.90;;;14.20;96.00;;;;;;8352724;28;20186;-81
2021/09/29 02:46:02;;;;;;;8.13;6.10;;;14.30;96.10;;;;;;8357290;28;20184;-79
2021/09/29 02:50:04;;;;;;;12.93;6.27;;;14.30;96.00;;;;;;8356292;28;20207;-80
2021/09/29 02:54:05;;;;;;;17.67;6.00;;;14.30;96.10;;;;;;8360645;28;20426;-80
2021/09/29 02:58:06;;;;;;;15.23;5.03;;;14.40;96.00;;;;;;8360918;28;20433;-81
2021/09/29 03:02:07;;;;;;;8.93;5.63;;;14.40;96.00;;;;;;8357893;28;20168;-80
2021/09/29 03:06:07;;;;;;;12.03;5.40;;;14.50;95.80;;;;;;8356780;28;20468;-80
2021/09/29 03:10:08;;;;;;;7.90;5.73;;;14.50;95.70;;;;;;8357288;28;20215;-80
2021/09/29 03:14:10;;;;;;;10.20;5.30;;;14.60;95.50;;;;;;8355832;28;20479;-79
2021/09/29 03:18:11;;;;;;;11.57;5.80;;;14.60;95.40;;;;;;8356308;28;20784;-80
2021/09/29 03:22:12;;;;;;;11.70;5.80;;;14.70;95.30;;;;;;8355517;28;20426;-79
2021/09/29 03:26:12;;;;;;;5.80;5.20;;;14.70;95.30;;;;;;8389167;28;20237;-81
2021/09/29 03:30:14;;;;;;;11.87;5.80;;;14.60;95.30;;;;;;8358621;28;20255;-80
2021/09/29 03:34:14;;;;;;;8.43;6.00;;;14.60;95.30;;;;;;8355284;28;20244;-80
2021/09/29 03:38:16;;;;;;;9.53;5.77;;;14.50;95.40;;;;;;8356672;28;20438;-80
2021/09/29 03:42:17;;;;;;;18.20;5.67;;;14.50;95.40;;;;;;8358308;28;20572;-80
2021/09/29 03:46:17;;;;;;;10.30;5.90;;;14.40;95.50;;;;;;8359107;28;20533;-79
2021/09/29 03:50:19;;;;;;;6.67;5.80;;;14.30;95.70;;;;;;8363808;28;20263;-80
2021/09/29 03:54:19;;;;;;;14.10;7.30;;;14.30;95.80;;;;;;8359624;28;20561;-81
2021/09/29 03:58:20;;;;;;;17.03;7.67;;;14.30;95.80;;;;;;8357513;28;20430;-81
2021/09/29 04:02:21;;;;;;;22.73;6.50;;;14.30;95.70;;;;;;8355015;28;20210;-81
2021/09/29 04:06:21;;;;;;;6.97;5.03;;;14.40;96.00;;;;;;8388756;28;20286;-80
2021/09/29 04:10:22;;;;;;;7.43;4.57;;;14.40;95.70;;;;;;8357248;28;20207;-80
2021/09/29 04:14:23;;;;;;;13.10;4.97;;;14.40;95.60;;;;;;8357707;28;20186;-80
2021/09/29 04:18:23;;;;;;;6.20;4.90;;;14.50;95.70;;;;;;8358425;28;20187;-81
2021/09/29 04:22:24;;;;;;;5.07;4.10;;;14.40;95.70;;;;;;8358839;28;20180;-80
2021/09/29 04:26:25;;;;;;;7.33;4.20;;;14.40;95.80;;;;;;8358736;28;20628;-81
2021/09/29 04:30:25;;;;;;;7.37;4.17;;;14.30;95.80;;;;;;8356420;28;20567;-81
2021/09/29 04:34:26;;;;;;;8.13;4.27;;;14.30;95.80;;;;;;8356623;28;20631;-79
2021/09/29 04:38:27;;;;;;;6.37;3.93;;;14.30;95.80;;;;;;8352161;28;20179;-79
2021/09/29 04:42:27;;;;;;;5.90;4.47;;;14.10;95.90;;;;;;8354255;28;20191;-81
2021/09/29 04:46:28;;;;;;;10.37;4.80;;;13.70;96.30;;;;;;8364779;28;20206;-79
2021/09/29 04:50:29;;;;;;;8.83;4.97;;;13.50;96.70;;;;;;8360792;28;20224;-80
2021/09/29 04:54:29;;;;;;;7.93;5.50;;;13.30;97.00;;;;;;8356404;28;20187;-80
2021/09/29 04:58:30;;;;;;;12.33;5.43;;;13.30;97.30;;;;;;8353477;28;20190;-80
2021/09/29 05:02:32;;;;;;;8.63;4.67;;;13.40;97.50;;;;;;8348368;28;20176;-80
2021/09/29 05:06:36;;;;;;;14.27;5.13;;;13.50;97.30;;;;;;8350090;28;20527;-80
2021/09/29 05:10:44;;;;;;;10.33;5.00;;;13.70;96.90;;;;;;8351516;28;20492;-82
2021/09/29 05:14:45;;;;;;;8.53;3.87;;;14.00;96.60;;;;;;8348449;28;20431;-81
2021/09/29 05:18:45;;;;;;;16.53;5.30;;;14.10;96.30;;;;;;8346039;28;20434;-81
2021/09/29 05:22:46;;;;;;;8.10;7.20;;;14.20;96.30;;;;;;8346144;28;20182;-80
2021/09/29 05:26:47;;;;;;;6.10;4.63;;;14.20;96.20;;;;;;8344594;28;20175;-79
2021/09/29 05:30:47;;;;;;;6.60;4.60;;;14.20;96.20;;;;;;8344623;28;20652;-79
2021/09/29 05:34:48;;;;;;;6.03;4.67;;;14.30;96.10;;;;;;8346235;28;20650;-79
2021/09/29 05:38:49;;;;;;;10.33;5.10;;;14.30;96.00;;;;;;8346944;28;20172;-79
2021/09/29 05:42:50;;;;;;;7.67;5.10;;;14.40;96.00;;;;;;8347233;28;20167;-81
2021/09/29 05:46:51;;;;;;;9.17;4.60;;;14.50;95.90;;;;;;8347913;28;21019;-79
2021/09/29 05:50:51;;;;;;;6.97;4.30;;;14.60;95.80;;;;;;8329789;28;20274;-80
2021/09/29 05:54:52;;;;;;;10.30;4.53;;;14.70;95.80;;;;;;8348479;28;20468;-81
2021/09/29 05:58:53;;;;;;;9.97;4.37;;;14.80;96.00;;;;;;8335787;28;20229;-79
2021/09/29 06:02:53;;;;;;;14.50;4.23;;;14.90;95.60;;;;;;8316109;28;20184;-79
2021/09/29 06:06:55;;;;;;;9.23;5.57;;;15.00;95.40;;;;;;8324793;28;20183;-81
2021/09/29 06:10:57;;;;;;;5.53;4.47;;;15.10;95.40;;;;;;8348461;28;20180;-78
2021/09/29 06:14:58;;;;;;;10.17;4.63;;;15.20;95.20;;;;;;8345941;28;20451;-82
2021/09/29 06:18:59;;;;;;;4.30;3.90;;;15.20;95.20;;;;;;8343227;28;20736;-79
2021/09/29 06:23:00;;;;;;;16.33;4.70;;;15.30;95.20;;;;;;8351073;28;20185;-79
2021/09/29 06:27:01;;;;;;;4.17;3.80;;;15.40;95.10;;;;;;8350945;28;20223;-79
2021/09/29 06:31:02;;;;;;;8.00;3.97;;;15.50;95.00;;;;;;8349529;28;20476;-80
2021/09/29 06:35:02;;;;;;;10.20;4.03;;;15.50;94.90;;;;;;8339071;28;20199;-80
2021/09/29 06:39:03;;;;;;;10.60;4.07;;;15.50;95.70;;;;;;8356621;28;20191;-79
2021/09/29 06:43:04;;;;;;;15.90;3.63;;;15.30;96.20;;;;;;8355298;28;20180;-79
2021/09/29 06:47:04;;;;;;;3.63;3.27;;;15.20;96.40;;;;;;8354111;28;20187;-79
2021/09/29 06:51:05;;;;;;;8.43;3.60;;;15.10;97.00;;;;;;8353437;28;20202;-80
2021/09/29 06:55:07;;;;;;;10.00;4.43;;;15.00;97.10;;;;;;8376756;28;20189;-80
2021/09/29 06:59:07;;;;;;;11.33;4.33;;;14.90;97.20;;;;;;8354780;28;20198;-80
2021/09/29 07:03:08;;;;;;;12.77;3.80;;;14.90;97.30;;;;;;8386338;28;20471;-81
2021/09/29 07:07:09;;;;;;;8.43;4.43;;;15.00;97.10;;;;;;8356765;28;20192;-79
2021/09/29 07:11:10;;;;;;;11.27;4.40;;;15.00;97.20;;;;;;8347691;28;20253;-79
2021/09/29 07:15:12;;;;;;;4.73;4.10;;;15.00;97.10;;;;;;8352272;28;20187;-81
2021/09/29 07:19:13;;;;;;;9.40;4.90;;;15.10;97.30;;;;;;8375219;28;20523;-80
2021/09/29 07:23:14;;;;;;;9.60;3.97;;;15.20;97.10;;;;;;8324014;28;20439;-80
2021/09/29 07:27:14;;;;;;;20.43;5.40;;;15.30;97.00;;;;;;8332894;28;20966;-80
2021/09/29 07:31:16;;;;;;;8.70;4.80;;;15.30;97.10;;;;;;8335191;28;20259;-81
2021/09/29 07:35:18;;;;;;;4.80;3.63;;;15.30;97.00;;;;;;8351007;28;20254;-81
2021/09/29 07:39:19;;;;;;;5.73;3.80;;;15.40;97.20;;;;;;8350277;28;20948;-81
2021/09/29 07:43:19;;;;;;;6.00;4.10;;;15.40;97.00;;;;;;8361122;28;20442;-81
2021/09/29 07:47:20;;;;;;;10.00;4.50;;;15.50;96.90;;;;;;8340370;28;20243;-80
2021/09/29 07:51:21;;;;;;;4.87;3.53;;;15.60;96.80;;;;;;8343596;28;20226;-80
2021/09/29 07:55:21;;;;;;;4.23;3.93;;;15.60;96.60;;;;;;8354669;28;20180;-79
2021/09/29 07:59:23;;;;;;;6.80;4.53;;;15.50;97.00;;;;;;8332790;28;20222;-81
2021/09/29 08:03:23;;;;;;;6.77;3.50;;;15.50;97.10;;;;;;8326376;28;20272;-80
2021/09/29 08:07:24;;;;;;;5.10;3.53;;;15.40;97.20;;;;;;8325456;28;20476;-80
2021/09/29 08:11:24;;;;;;;5.03;4.63;;;15.40;97.40;;;;;;8324958;28;20616;-81
2021/09/29 08:15:25;;;;;;;7.07;3.43;;;15.40;98.00;;;;;;8335027;28;20188;-78
2021/09/29 08:19:26;;;;;;;7.90;4.00;;;15.40;97.40;;;;;;8349677;28;20548;-80
2021/09/29 08:23:38;;;;;;;7.27;3.50;;;15.50;97.30;;;;;;8332802;28;20180;-79
2021/09/29 08:32:09;;;;;;;4.87;3.10;;;15.80;97.20;;;;;;8328904;28;20463;-80
2021/09/29 08:40:23;;;;;;;5.73;2.07;;;16.20;97.30;;;;;;8323340;28;20461;-79
2021/09/29 08:44:43;;;;;;;3.90;1.47;;;16.70;96.40;;;;;;8322216;28;20442;-81
2021/09/29 09:18:46;;;;;;;2.73;1.33;;;18.30;93.10;;;;;;8320707;28;20449;-79
2021/09/29 09:22:53;;;;;;;3.50;1.97;;;18.10;92.80;;;;;;8343488;28;20522;-79
2021/09/29 09:27:03;;;;;;;1.93;1.83;;;18.00;93.50;;;;;;8349927;28;20481;-78
2021/09/29 09:31:09;;;;;;;1.47;1.10;;;18.00;93.40;;;;;;8347925;28;20454;-80
2021/09/29 09:35:13;;;;;;;0.90;0.80;;;17.90;93.60;;;;;;8328489;28;20454;-80
2021/09/29 09:39:20;;;;;;;1.63;1.53;;;17.90;93.10;;;;;;8341488;28;20453;-78
2021/09/29 09:43:23;;;;;;;0.70;0.70;;;17.80;93.60;;;;;;8367711;28;20438;-80
2021/09/29 09:47:26;;;;;;;0.80;0.80;;;17.80;93.90;;;;;;8334845;28;20529;-79
2021/09/29 09:51:27;;;;;;;1.40;1.30;;;18.00;92.60;;;;;;8329585;28;20449;-78
2021/09/29 09:55:27;;;;;;;0.90;0.90;;;18.30;93.00;;;;;;8350483;28;20419;-80
2021/09/29 09:59:30;;;;;;;1.10;0.70;;;18.20;92.20;;;;;;8318100;28;20196;-78
2021/09/29 10:03:30;;;;;;;0.80;0.80;;;18.00;87.50;;;;;;8318274;28;20211;-79
2021/09/29 10:07:31;;;;;;;0.70;0.70;;;17.60;87.70;;;;;;8316886;28;20577;-79
2021/09/29 10:11:50;;;;;;;0.70;0.70;;;17.40;87.80;;;;;;8315765;28;20183;-78
2021/09/29 10:28:41;;;;;;;0.60;0.60;;;16.20;91.90;;;;;;8351916;28;20506;-79
2021/09/29 10:32:46;;;;;;;0.80;0.80;;;16.10;92.10;;;;;;8349422;28;20494;-78
2021/09/29 10:37:39;;;;;;;0.60;0.60;;;16.20;92.20;;;;;;8354227;28;20432;-79
2021/09/29 10:41:22;;;;;;;0.77;0.60;;;16.30;91.40;;;;;;8336083;28;20520;-79
2021/09/29 10:49:42;;;;;;;0.70;0.60;;;16.60;91.00;;;;;;8353186;28;20839;-79
2021/09/29 11:11:35;;;;;;;0.80;0.70;;;17.30;90.40;;;;;;8331531;28;20449;-79
2021/09/29 11:33:03;;;;;;;0.70;0.70;;;19.00;83.90;;;;;;8353960;28;20944;-80
2021/09/29 11:37:22;;;;;;;0.70;0.70;;;18.70;84.10;;;;;;8317773;28;20473;-79
2021/09/29 12:16:36;;;;;;;1.50;1.40;;;17.80;83.60;;;;;;8325291;28;20518;-83
2021/09/29 12:20:49;;;;;;;2.60;1.30;;;15.70;90.40;;;;;;8331985;28;20448;-79
2021/09/29 12:25:05;;;;;;;2.00;1.80;;;14.50;93.20;;;;;;8329164;28;20438;-85
2021/09/29 12:29:18;;;;;;;6.43;1.77;;;14.10;94.50;;;;;;8320325;28;21093;-82
2021/09/29 12:33:47;;;;;;;3.43;2.67;;;14.40;96.00;;;;;;8329099;28;20434;-85
2021/09/29 12:37:59;;;;;;;2.40;1.43;;;15.00;96.20;;;;;;8326124;28;20458;-82
2021/09/29 12:42:00;;;;;;;3.13;1.90;;;16.00;95.30;;;;;;8322427;28;20843;-82
2021/09/29 12:46:01;;;;;;;5.13;2.63;;;16.60;94.00;;;;;;8326529;28;20438;-83
2021/09/29 12:50:10;;;;;;;1.63;1.53;;;17.00;92.80;;;;;;8331314;28;20205;-81
2021/09/29 12:54:16;;;;;;;1.90;1.60;;;17.20;92.70;;;;;;8328128;28;20187;-80
2021/09/29 12:58:17;;;;;;;2.37;1.90;;;17.30;92.50;;;;;;8333128;28;20540;-82
2021/09/29 13:02:22;;;;;;;2.40;2.20;;;17.60;92.10;;;;;;8327777;28;20442;-80
2021/09/29 13:06:23;;;;;;;4.20;1.80;;;17.90;92.10;;;;;;8326481;28;20207;-80
2021/09/29 13:10:24;;;;;;;2.37;2.17;;;18.00;90.60;;;;;;8311755;28;20481;-79
2021/09/29 13:14:24;;;;;;;2.63;1.83;;;18.00;90.50;;;;;;8332394;28;20189;-81
2021/09/29 13:22:49;;;;;;;6.87;2.60;;;18.10;89.90;;;;;;8340768;28;20192;-80
2021/09/29 13:39:18;;;;;;;1.73;1.63;;;18.10;84.60;;;;;;8351656;28;20828;-78
2021/09/29 13:43:19;;;;;;;7.43;1.97;;;18.40;83.70;;;;;;8338261;28;20585;-78
2021/09/29 13:47:20;;;;;;;2.30;1.20;;;18.50;81.70;;;;;;8317750;28;20439;-76
2021/09/29 13:51:20;;;;;;;2.17;1.30;;;18.50;80.90;;;;;;8319927;28;20180;-78
2021/09/29 13:55:23;;;;;;;2.17;1.00;;;18.70;80.20;;;;;;8339742;28;20445;-78
2021/09/29 13:59:40;;;;;;;1.00;1.00;;;19.00;78.00;;;;;;8319779;28;20179;-78
2021/09/29 14:14:03;;;;;;;1.60;1.50;;;19.20;76.90;;;;;;8349350;28;20446;-78
2021/09/29 14:30:15;;;;;;;1.77;1.20;;;18.90;78.90;;;;;;8322258;28;20489;-77
2021/09/29 14:34:06;;;;;;;4.13;1.90;;;18.80;78.20;;;;;;8333538;28;20521;-77
2021/09/29 14:38:06;;;;;;;2.50;1.30;;;18.50;79.80;;;;;;8333644;28;20899;-78
2021/09/29 14:42:07;;;;;;;2.03;1.53;;;18.50;80.20;;;;;;8365713;28;20191;-77
2021/09/29 14:46:08;;;;;;;4.73;1.73;;;18.40;80.80;;;;;;8369131;28;20240;-79
2021/09/29 14:50:09;;;;;;;1.53;1.43;;;18.20;81.60;;;;;;8349350;28;20472;-77
2021/09/29 14:54:09;;;;;;;1.40;1.30;;;18.20;82.40;;;;;;8348631;28;20188;-77
2021/09/29 14:58:10;;;;;;;6.10;1.50;;;18.20;80.60;;;;;;8327164;28;20200;-77
2021/09/29 15:02:13;;;;;;;0.80;0.80;;;17.60;75.40;;;;;;8331340;28;20194;-77
2021/09/29 15:06:14;;;;;;;1.70;1.57;;;17.40;75.30;;;;;;8311268;28;20191;-76
2021/09/29 15:10:15;;;;;;;2.73;1.30;;;17.30;78.20;;;;;;8317412;28;20505;-76
2021/09/29 15:14:24;;;;;;;3.50;1.20;;;16.90;78.60;;;;;;8333378;28;20191;-77
2021/09/29 15:18:33;;;;;;;2.60;1.53;;;16.70;80.20;;;;;;8345677;28;20197;-78
2021/09/29 15:48:16;;;;;;;1.80;1.20;;;17.50;79.20;;;;;;8350586;28;20502;-80
2021/09/29 16:01:29;;;;;;;3.20;1.80;;;16.60;81.00;;;;;;8364117;28;20443;-80
2021/09/29 16:05:55;;;;;;;4.33;1.47;;;16.30;82.00;;;;;;8331529;28;20565;-80
2021/09/29 16:14:30;;;;;;;2.47;1.70;;;16.00;84.00;;;;;;8331296;28;20498;-79
2021/09/29 16:18:56;;;;;;;4.07;1.93;;;15.90;84.80;;;;;;8323061;28;20517;-79
2021/09/29 16:23:24;;;;;;;2.03;1.80;;;16.00;84.80;;;;;;8335153;28;20434;-78
2021/09/29 16:31:46;;;;;;;2.30;1.43;;;16.20;82.40;;;;;;8321995;28;20464;-80
2021/09/29 16:35:51;;;;;;;3.00;1.27;;;16.20;80.90;;;;;;8306904;28;20498;-78
2021/09/29 16:39:51;;;;;;;1.80;0.90;;;16.10;81.00;;;;;;8327547;28;20481;-79
2021/09/29 16:43:52;;;;;;;3.63;1.07;;;15.90;80.60;;;;;;8340893;28;20757;-79
2021/09/29 16:47:54;;;;;;;2.57;1.20;;;15.80;80.20;;;;;;8339025;28;20204;-80
2021/09/29 16:52:08;;;;;;;2.80;0.80;;;15.70;81.00;;;;;;8308271;28;20184;-78
2021/09/29 16:56:10;;;;;;;2.37;1.60;;;15.50;80.40;;;;;;8331152;28;20449;-79
2021/09/29 17:00:44;;;;;;;1.50;1.40;;;15.30;81.50;;;;;;8339595;28;20426;-79
2021/09/29 17:04:32;;;;;;;1.43;1.17;;;15.10;81.60;;;;;;8333942;28;20446;-81
2021/09/29 17:08:32;;;;;;;1.87;1.17;;;14.90;82.00;;;;;;8321748;28;20494;-79
2021/09/29 17:12:35;;;;;;;3.13;1.10;;;14.80;82.20;;;;;;8310830;28;20184;-79
2021/09/29 17:16:36;;;;;;;1.73;1.10;;;14.60;82.50;;;;;;8310281;28;20181;-86
2021/09/29 17:20:36;;;;;;;6.53;1.13;;;14.50;82.80;;;;;;8324651;28;20564;-79
2021/09/29 17:24:39;;;;;;;1.50;1.10;;;14.30;83.50;;;;;;8345288;28;20442;-79
2021/09/29 17:28:48;;;;;;;1.67;1.33;;;14.20;84.00;;;;;;8348201;28;20607;-79
2021/09/29 17:33:20;;;;;;;2.60;1.10;;;14.10;84.40;;;;;;8308488;28;20415;-80
2021/09/29 17:37:20;;;;;;;1.80;1.43;;;14.00;84.90;;;;;;8314898;28;20505;-78
2021/09/29 17:54:38;;;;;;;7.63;1.80;;;13.70;87.40;;;;;;8292561;28;20491;-80
2021/09/29 17:58:39;;;;;;;3.03;1.57;;;13.70;88.00;;;;;;8303649;28;20443;-80
2021/09/29 18:11:10;;;;;;;6.83;2.30;;;13.50;89.10;;;;;;8316517;28;20518;-79
2021/09/29 18:15:12;;;;;;;7.50;1.40;;;13.50;89.20;;;;;;8332284;28;20461;-80
2021/09/29 18:19:12;;;;;;;2.27;1.50;;;13.40;89.70;;;;;;8336032;28;20471;-78
2021/09/29 18:23:13;;;;;;;3.20;2.03;;;13.40;90.00;;;;;;8338266;28;20419;-79
2021/09/29 18:27:14;;;;;;;3.17;1.60;;;13.30;90.10;;;;;;8337375;28;20235;-79
2021/09/29 18:31:16;;;;;;;2.30;1.47;;;13.30;90.30;;;;;;8339477;28;20543;-79
2021/09/29 18:35:17;;;;;;;2.90;1.93;;;13.20;90.50;;;;;;8339049;28;20499;-79
2021/09/29 18:39:22;;;;;;;1.50;1.40;;;13.10;90.70;;;;;;8346053;28;20447;-78
2021/09/29 18:43:26;;;;;;;3.40;1.57;;;13.10;90.90;;;;;;8309934;28;20499;-80
2021/09/29 18:47:26;;;;;;;4.23;1.60;;;13.10;91.00;;;;;;8340130;28;20504;-77
2021/09/29 18:51:28;;;;;;;8.10;2.23;;;13.10;91.10;;;;;;8341189;28;20480;-80
2021/09/29 18:55:33;;;;;;;1.73;1.63;;;13.00;91.20;;;;;;8341188;28;20183;-78
2021/09/29 19:04:23;;;;;;;4.10;1.57;;;13.10;91.30;;;;;;8341276;28;20409;-80
2021/09/29 19:08:23;;;;;;;7.73;1.60;;;13.20;91.10;;;;;;8337581;28;20949;-80
2021/09/29 19:12:24;;;;;;;2.70;1.70;;;13.20;90.80;;;;;;8336997;28;20417;-78
2021/09/29 19:16:25;;;;;;;2.80;1.20;;;13.30;90.80;;;;;;8336210;28;20215;-79
2021/09/29 19:20:27;;;;;;;3.40;1.80;;;13.30;90.60;;;;;;8337853;28;20175;-80
2021/09/29 19:24:27;;;;;;;1.90;1.80;;;13.30;90.60;;;;;;8337735;28;20176;-77
2021/09/29 19:28:30;;;;;;;1.90;1.30;;;13.30;90.50;;;;;;8337030;28;20828;-78
2021/09/29 19:32:35;;;;;;;4.50;1.90;;;13.30;90.60;;;;;;8340587;28;20534;-79
2021/09/29 19:36:40;;;;;;;5.57;1.60;;;13.30;90.70;;;;;;8343730;28;20469;-79
2021/09/29 19:40:40;;;;;;;2.73;1.50;;;13.30;90.90;;;;;;8342744;28;20540;-80
2021/09/29 19:44:41;;;;;;;3.53;2.13;;;13.20;90.90;;;;;;8343284;28;20414;-78
2021/09/29 20:09:46;;;;;;;5.13;1.90;;;12.90;91.80;;;;;;8315854;28;20472;-79
2021/09/29 20:13:47;;;;;;;6.20;2.03;;;12.90;92.10;;;;;;8317019;28;20465;-78
2021/09/29 20:17:49;;;;;;;6.97;2.33;;;12.90;92.20;;;;;;8323830;28;20855;-77
2021/09/29 20:21:50;;;;;;;3.57;2.27;;;12.90;92.20;;;;;;8325863;28;20210;-79
2021/09/29 20:25:50;;;;;;;1.77;1.67;;;12.90;92.40;;;;;;8320033;28;20434;-80
2021/09/29 20:29:51;;;;;;;2.10;1.97;;;12.90;92.50;;;;;;8360645;28;20265;-78
2021/09/29 20:46:17;;;;;;;2.03;1.77;;;12.70;92.10;;;;;;8327692;28;20508;-79
2021/09/29 20:50:19;;;;;;;7.57;2.00;;;12.70;92.00;;;;;;8332776;28;20260;-78
2021/09/29 20:54:20;;;;;;;1.80;1.70;;;12.80;92.00;;;;;;8343065;28;20439;-77
2021/09/29 20:58:21;;;;;;;2.27;2.07;;;12.80;91.80;;;;;;8307272;28;20568;-80
2021/09/29 21:02:22;;;;;;;2.60;1.83;;;12.80;91.60;;;;;;8307464;28;20913;-80
2021/09/29 21:06:23;;;;;;;2.53;1.47;;;12.90;91.60;;;;;;8336079;28;20598;-80
2021/09/29 21:10:26;;;;;;;3.00;1.73;;;12.90;91.60;;;;;;8342531;28;20467;-79
2021/09/29 21:14:32;;;;;;;3.67;1.67;;;12.80;91.70;;;;;;8357562;28;20192;-78
2021/09/29 21:18:33;;;;;;;4.57;1.33;;;12.80;91.80;;;;;;8323622;28;20453;-78
2021/09/29 21:22:34;;;;;;;2.27;1.50;;;12.80;91.80;;;;;;8325851;28;20508;-78
2021/09/29 21:26:34;;;;;;;1.47;1.37;;;12.90;91.70;;;;;;8326427;28;20183;-78
2021/09/29 21:30:43;;;;;;;6.20;1.97;;;13.00;91.60;;;;;;8322342;28;20829;-78
2021/09/29 21:34:45;;;;;;;7.20;1.40;;;13.10;91.70;;;;;;8307203;28;20241;-77
2021/09/29 21:38:52;;;;;;;1.93;1.47;;;13.10;91.80;;;;;;8312217;28;20948;-79
2021/09/29 22:56:48;;;;;;;2.07;1.97;;;12.50;91.50;;;;;;8344912;28;20408;-78
2021/09/29 23:04:52;;;;;;;2.10;1.87;;;12.60;91.50;;;;;;8339706;28;20417;-79
2021/09/29 23:12:58;;;;;;;4.53;2.80;;;12.60;91.30;;;;;;8344448;28;20930;-80
2021/09/29 23:34:15;;;;;;;6.20;1.60;;;12.60;91.60;;;;;;8341781;28;20411;-78
2021/09/29 23:38:16;;;;;;;2.30;2.10;;;12.50;91.50;;;;;;8341576;28;20431;-77
2021/09/29 23:42:17;;;;;;;4.60;1.97;;;12.50;91.60;;;;;;8337637;28;20182;-78
2021/09/29 23:46:20;;;;;;;3.73;1.93;;;12.50;91.70;;;;;;8339334;28;20170;-78
2021/09/29 23:50:22;;;;;;;1.80;1.70;;;12.40;91.80;;;;;;8341472;28;20213;-79
2021/09/29 23:54:23;;;;;;;3.30;2.10;;;12.40;91.90;;;;;;8341721;28;20428;-78
2021/09/29 23:58:26;;;;;;;4.70;2.20;;;12.40;91.90;;;;;;8342694;28;20414;-79
